createdAt,value
2018-07-25T00:00:19.683Z,14.93
2018-07-25T00:02:48.552Z,16.23
2018-07-25T00:05:17.257Z,16.97
2018-07-25T00:07:45.946Z,15.83
2018-07-25T00:10:14.579Z,15.93
2018-07-25T00:12:43.281Z,16.47
2018-07-25T00:15:11.913Z,17.00
2018-07-25T00:17:40.586Z,15.97
2018-07-25T00:20:09.402Z,20.37
2018-07-25T00:22:38.140Z,21.40
2018-07-25T00:25:06.850Z,17.13
2018-07-25T00:27:36.163Z,18.67
2018-07-25T00:30:05.409Z,19.77
2018-07-25T00:32:34.370Z,17.97
2018-07-25T00:35:03.031Z,18.60
2018-07-25T00:37:31.645Z,19.73
2018-07-25T00:40:00.705Z,20.07
2018-07-25T00:42:29.364Z,18.87
2018-07-25T00:44:58.085Z,21.03
2018-07-25T00:47:27.139Z,21.80
2018-07-25T00:49:56.083Z,18.00
2018-07-25T00:52:25.640Z,21.77
2018-07-25T00:54:54.280Z,20.93
2018-07-25T00:57:23.911Z,19.60
2018-07-25T00:59:52.544Z,17.17
2018-07-25T01:02:21.267Z,17.30
2018-07-25T01:04:50.840Z,15.53
2018-07-25T01:07:19.522Z,15.10
2018-07-25T01:09:48.530Z,19.00
2018-07-25T01:12:17.243Z,15.77
2018-07-25T01:14:45.857Z,18.13
2018-07-25T01:17:14.469Z,17.17
2018-07-25T01:19:43.336Z,22.30
2018-07-25T01:22:12.265Z,20.00
2018-07-25T01:24:40.959Z,16.10
2018-07-25T01:27:09.639Z,15.90
2018-07-25T01:29:39.313Z,16.20
2018-07-25T01:32:08.562Z,20.63
2018-07-25T01:34:38.195Z,17.00
2018-07-25T01:37:07.150Z,15.73
2018-07-25T01:39:36.427Z,15.70
2018-07-25T01:42:05.016Z,16.80
2018-07-25T01:44:33.648Z,15.67
2018-07-25T01:47:02.297Z,17.47
2018-07-25T01:49:31.020Z,18.60
2018-07-25T01:52:00.008Z,15.77
2018-07-25T01:54:28.751Z,16.13
2018-07-25T01:56:57.328Z,16.90
2018-07-25T01:59:28.298Z,16.63
2018-07-25T02:01:58.583Z,16.90
2018-07-25T02:04:27.739Z,17.40
2018-07-25T02:06:56.365Z,15.70
2018-07-25T02:09:25.083Z,16.20
2018-07-25T02:11:54.533Z,16.13
2018-07-25T02:14:23.630Z,16.53
2018-07-25T02:16:52.242Z,21.40
2018-07-25T02:19:21.023Z,23.77
2018-07-25T02:21:49.625Z,19.17
2018-07-25T02:24:18.270Z,19.77
2018-07-25T02:26:47.389Z,21.77
2018-07-25T02:29:16.053Z,18.13
2018-07-25T02:31:44.648Z,18.07
2018-07-25T02:34:18.416Z,17.40
2018-07-25T02:36:47.035Z,18.90
2018-07-25T02:39:15.757Z,17.80
2018-07-25T02:41:45.160Z,17.20
2018-07-25T02:44:14.130Z,17.30
2018-07-25T02:46:42.727Z,18.30
2018-07-25T02:49:11.556Z,15.83
2018-07-25T02:51:40.162Z,17.00
2018-07-25T02:54:09.319Z,17.23
2018-07-25T02:56:37.916Z,17.50
2018-07-25T02:59:06.762Z,21.07
2018-07-25T03:01:35.385Z,18.40
2018-07-25T03:04:04.056Z,17.50
2018-07-25T03:06:32.702Z,16.40
2018-07-25T03:09:01.492Z,16.80
2018-07-25T03:11:30.149Z,18.37
2018-07-25T03:13:58.770Z,20.20
2018-07-25T03:16:27.640Z,15.97
2018-07-25T03:18:56.211Z,17.70
2018-07-25T03:21:24.854Z,18.17
2018-07-25T03:23:53.567Z,21.43
2018-07-25T03:26:22.185Z,19.37
2018-07-25T03:28:51.502Z,24.00
2018-07-25T03:31:20.304Z,42.27
2018-07-25T03:33:48.819Z,124.17
2018-07-25T03:36:17.426Z,90.37
2018-07-25T03:38:46.718Z,173.80
2018-07-25T03:41:15.365Z,265.70
2018-07-25T03:43:44.752Z,33.30
2018-07-25T03:46:13.409Z,30.60
2018-07-25T03:48:42.110Z,28.50
2018-07-25T03:51:10.740Z,28.83
2018-07-25T03:53:39.373Z,26.90
2018-07-25T03:56:08.008Z,23.80
2018-07-25T03:58:36.635Z,39.20
2018-07-25T04:01:05.294Z,32.20
2018-07-25T04:03:33.862Z,32.10
2018-07-25T04:06:03.241Z,30.17
2018-07-25T04:08:31.841Z,23.50
2018-07-25T04:11:00.502Z,22.17
2018-07-25T04:13:29.861Z,29.63
2018-07-25T04:15:58.541Z,48.40
2018-07-25T04:18:27.241Z,51.00
2018-07-25T04:20:55.845Z,23.47
2018-07-25T04:23:24.601Z,30.67
2018-07-25T04:25:53.283Z,38.80
2018-07-25T04:28:21.856Z,28.17
2018-07-25T04:30:50.527Z,28.07
2018-07-25T04:33:21.542Z,79.70
2018-07-25T04:35:50.227Z,27.90
2018-07-25T04:38:18.810Z,27.17
2018-07-25T04:40:47.540Z,2266.67
2018-07-25T04:43:16.164Z,2266.67
2018-07-25T04:45:44.784Z,2266.67
2018-07-25T04:48:13.367Z,2266.67
2018-07-25T04:50:41.981Z,2266.67
2018-07-25T04:53:11.347Z,2266.67
2018-07-25T04:55:39.980Z,2266.67
2018-07-25T04:58:08.656Z,2266.67
2018-07-25T05:00:37.275Z,2266.67
2018-07-25T05:03:05.914Z,2266.67
2018-07-25T05:05:35.313Z,2266.67
2018-07-25T05:08:03.984Z,2266.67
2018-07-25T05:10:32.589Z,2266.67
2018-07-25T05:13:01.341Z,2266.67
2018-07-25T05:15:30.282Z,2266.67
2018-07-25T05:17:58.974Z,2266.67
2018-07-25T05:20:28.254Z,2266.67
2018-07-25T05:22:57.200Z,2266.67
2018-07-25T05:25:25.815Z,2266.67
2018-07-25T05:27:54.433Z,2266.67
2018-07-25T05:30:23.047Z,2266.67
2018-07-25T05:32:52.569Z,2266.67
2018-07-25T05:35:21.226Z,2266.67
2018-07-25T05:37:49.866Z,2266.67
2018-07-25T05:40:18.636Z,2266.67
2018-07-25T05:42:47.484Z,90.20
2018-07-25T05:45:16.816Z,26.13
2018-07-25T05:47:45.516Z,22.93
2018-07-25T05:50:14.165Z,21.17
2018-07-25T05:52:43.467Z,26.20
2018-07-25T05:55:12.028Z,21.50
2018-07-25T05:57:40.658Z,29.57
2018-07-25T06:00:09.388Z,21.40
2018-07-25T06:02:38.072Z,22.60
2018-07-25T06:05:06.732Z,21.93
2018-07-25T06:07:35.463Z,21.97
2018-07-25T06:10:04.546Z,21.63
2018-07-25T06:12:33.159Z,22.97
2018-07-25T06:15:01.794Z,26.13
2018-07-25T06:17:30.414Z,21.07
2018-07-25T06:19:59.032Z,21.40
2018-07-25T06:22:27.617Z,23.60
2018-07-25T06:24:56.396Z,27.10
2018-07-25T06:27:25.135Z,20.83
2018-07-25T06:29:53.746Z,28.93
2018-07-25T06:32:22.631Z,27.70
2018-07-25T06:34:51.363Z,28.67
2018-07-25T06:37:20.135Z,24.20
2018-07-25T06:39:48.824Z,25.03
2018-07-25T06:42:17.520Z,21.20
2018-07-25T06:44:46.128Z,21.73
2018-07-25T06:47:14.825Z,21.80
2018-07-25T06:49:43.623Z,21.23
2018-07-25T06:52:12.292Z,23.47
2018-07-25T06:54:40.985Z,28.57
2018-07-25T06:57:10.289Z,24.17
2018-07-25T06:59:38.875Z,23.53
2018-07-25T07:02:07.628Z,25.03
2018-07-25T07:04:36.570Z,25.93
2018-07-25T07:07:05.386Z,19.23
2018-07-25T07:09:34.010Z,20.60
2018-07-25T07:12:03.327Z,21.33
2018-07-25T07:14:31.940Z,18.30
2018-07-25T07:17:00.564Z,16.80
2018-07-25T07:19:29.206Z,18.17
2018-07-25T07:21:58.713Z,19.43
2018-07-25T07:24:27.370Z,18.47
2018-07-25T07:26:56.054Z,28.33
2018-07-25T07:29:24.732Z,20.47
2018-07-25T07:31:53.534Z,21.60
2018-07-25T07:34:22.218Z,20.20
2018-07-25T07:36:51.085Z,20.93
2018-07-25T07:39:19.737Z,20.23
2018-07-25T07:41:48.438Z,19.97
2018-07-25T07:44:17.962Z,17.70
2018-07-25T07:46:46.590Z,17.60
2018-07-25T07:49:15.340Z,16.30
2018-07-25T07:51:43.952Z,16.90
2018-07-25T07:54:12.752Z,16.33
2018-07-25T07:56:41.398Z,18.13
2018-07-25T07:59:10.666Z,15.60
2018-07-25T08:01:39.838Z,15.40
2018-07-25T08:04:09.110Z,19.30
2018-07-25T08:06:37.745Z,15.80
2018-07-25T08:09:09.277Z,15.90
2018-07-25T08:11:37.877Z,15.27
2018-07-25T08:14:06.611Z,14.00
2018-07-25T08:16:35.245Z,18.20
2018-07-25T08:19:03.997Z,15.87
2018-07-25T08:21:32.821Z,13.87
2018-07-25T08:24:01.485Z,14.00
2018-07-25T08:26:30.141Z,58.20
2018-07-25T08:28:58.731Z,20.57
2018-07-25T08:31:28.217Z,17.67
2018-07-25T08:33:56.851Z,14.67
2018-07-25T08:36:25.498Z,15.03
2018-07-25T08:38:54.082Z,14.63
2018-07-25T08:41:22.878Z,18.97
2018-07-25T08:43:51.440Z,292.83
2018-07-25T08:46:20.122Z,16.80
2018-07-25T08:48:49.724Z,101.80
2018-07-25T08:51:18.529Z,851.97
2018-07-25T08:53:47.229Z,111.53
2018-07-25T08:56:16.751Z,11.57
2018-07-25T08:58:45.390Z,9.57
2018-07-25T09:01:14.040Z,11.87
2018-07-25T09:03:42.666Z,14.30
2018-07-25T09:06:11.331Z,12.80
2018-07-25T09:08:39.947Z,14.37
2018-07-25T09:11:08.759Z,8.47
2018-07-25T09:13:37.559Z,9.50
2018-07-25T09:16:06.193Z,11.73
2018-07-25T09:18:35.539Z,13.57
2018-07-25T09:21:04.259Z,14.10
2018-07-25T09:23:32.900Z,17.50
2018-07-25T09:26:01.614Z,10.73
2018-07-25T09:28:30.227Z,11.80
2018-07-25T09:30:58.862Z,10.60
2018-07-25T09:33:27.650Z,11.50
2018-07-25T09:35:58.099Z,10.80
2018-07-25T09:38:26.820Z,17.03
2018-07-25T09:40:55.511Z,10.67
2018-07-25T09:43:24.221Z,11.57
2018-07-25T09:45:52.905Z,14.40
2018-07-25T09:48:21.625Z,11.67
2018-07-25T09:50:50.305Z,11.50
2018-07-25T09:53:18.984Z,10.40
2018-07-25T09:55:48.002Z,12.20
2018-07-25T09:58:16.924Z,14.03
2018-07-25T10:00:47.554Z,12.97
2018-07-25T10:03:17.194Z,12.60
2018-07-25T10:05:46.096Z,13.17
2018-07-25T10:08:15.285Z,14.10
2018-07-25T10:10:44.579Z,13.17
2018-07-25T10:13:13.320Z,10.47
2018-07-25T10:15:41.954Z,10.90
2018-07-25T10:18:10.915Z,11.03
2018-07-25T10:20:39.645Z,11.43
2018-07-25T10:23:08.539Z,738.33
2018-07-25T10:25:37.166Z,75.33
2018-07-25T10:28:06.240Z,13.53
2018-07-25T10:30:34.912Z,12.80
2018-07-25T10:33:03.748Z,9.33
2018-07-25T10:35:32.271Z,9.97
2018-07-25T10:38:00.934Z,12.10
2018-07-25T10:40:29.544Z,10.00
2018-07-25T10:42:58.845Z,9.70
2018-07-25T10:45:27.560Z,10.60
2018-07-25T10:47:56.261Z,10.17
2018-07-25T10:50:25.628Z,9.67
2018-07-25T10:52:54.301Z,12.43
2018-07-25T10:55:22.883Z,10.40
2018-07-25T10:57:51.535Z,10.60
2018-07-25T11:00:21.076Z,8.53
2018-07-25T11:02:49.695Z,12.33
2018-07-25T11:05:18.484Z,8.70
2018-07-25T11:07:47.442Z,11.07
2018-07-25T11:10:16.181Z,8.03
2018-07-25T11:12:44.810Z,8.40
2018-07-25T11:15:13.571Z,8.67
2018-07-25T11:17:42.345Z,9.87
2018-07-25T11:20:11.293Z,8.80
2018-07-25T11:22:39.961Z,8.93
2018-07-25T11:25:08.667Z,8.67
2018-07-25T11:27:38.180Z,8.53
2018-07-25T11:30:06.973Z,9.53
2018-07-25T11:32:35.737Z,10.43
2018-07-25T11:35:04.316Z,8.60
2018-07-25T11:37:33.197Z,9.00
2018-07-25T11:40:01.827Z,12.20
2018-07-25T11:42:30.529Z,9.43
2018-07-25T11:45:05.943Z,204.60
2018-07-25T11:47:34.556Z,10.87
2018-07-25T11:50:03.256Z,8.87
2018-07-25T11:52:31.894Z,8.73
2018-07-25T11:55:00.972Z,22.97
2018-07-25T11:57:29.619Z,9.10
2018-07-25T11:59:58.253Z,8.80
2018-07-25T12:02:26.867Z,8.73
2018-07-25T12:04:55.499Z,8.40
2018-07-25T12:07:24.132Z,7.50
2018-07-25T12:09:52.945Z,7.83
2018-07-25T12:12:21.538Z,8.17
2018-07-25T12:14:50.189Z,7.33
2018-07-25T12:17:19.094Z,8.43
2018-07-25T12:19:47.739Z,13.23
2018-07-25T12:22:16.445Z,9.17
2018-07-25T12:24:45.091Z,7.90
2018-07-25T12:27:13.745Z,7.80
2018-07-25T12:29:43.124Z,7.20
2018-07-25T12:32:12.593Z,6.87
2018-07-25T12:34:41.270Z,8.37
2018-07-25T12:37:10.540Z,7.10
2018-07-25T12:39:40.319Z,8.03
2018-07-25T12:42:09.800Z,6.63
2018-07-25T12:44:38.416Z,7.20
2018-07-25T12:47:07.139Z,6.70
2018-07-25T12:49:36.120Z,8.03
2018-07-25T12:52:04.765Z,8.43
2018-07-25T12:54:33.427Z,6.87
2018-07-25T12:57:02.036Z,8.50
2018-07-25T12:59:30.733Z,7.60
2018-07-25T13:01:59.494Z,7.70
2018-07-25T13:04:28.798Z,7.30
2018-07-25T13:06:57.557Z,10.30
2018-07-25T13:09:26.317Z,7.37
2018-07-25T13:11:54.939Z,6.20
2018-07-25T13:14:23.578Z,6.30
2018-07-25T13:16:52.431Z,7.57
2018-07-25T13:19:21.034Z,7.80
2018-07-25T13:21:49.827Z,6.67
2018-07-25T13:24:18.514Z,7.20
2018-07-25T13:26:47.616Z,6.67
2018-07-25T13:29:16.313Z,7.00
2018-07-25T13:31:44.999Z,6.43
2018-07-25T13:34:13.699Z,6.77
2018-07-25T13:36:43.285Z,8.40
2018-07-25T13:39:11.895Z,6.10
2018-07-25T13:41:40.728Z,5.50
2018-07-25T13:44:09.406Z,8.07
2018-07-25T13:46:38.067Z,6.83
2018-07-25T13:49:06.971Z,6.87
2018-07-25T13:51:35.822Z,12.37
2018-07-25T13:54:04.562Z,7.87
2018-07-25T13:56:33.270Z,8.47
2018-07-25T13:59:01.942Z,7.27
2018-07-25T14:01:30.621Z,6.70
2018-07-25T14:03:59.975Z,6.93
2018-07-25T14:06:28.652Z,6.97
2018-07-25T14:08:57.318Z,6.93
2018-07-25T14:11:26.711Z,8.70
2018-07-25T14:13:55.317Z,6.73
2018-07-25T14:16:23.983Z,7.40
2018-07-25T14:18:52.712Z,7.50
2018-07-25T14:21:22.169Z,10.40
2018-07-25T14:23:50.928Z,7.40
2018-07-25T14:26:19.435Z,7.60
2018-07-25T14:28:48.851Z,7.40
2018-07-25T14:31:17.495Z,8.87
2018-07-25T14:33:46.380Z,7.20
2018-07-25T14:36:15.241Z,9.07
2018-07-25T14:38:43.920Z,8.40
2018-07-25T14:41:12.633Z,8.30
2018-07-25T14:43:41.319Z,10.00
2018-07-25T14:46:10.697Z,11.83
2018-07-25T14:48:39.484Z,14.87
2018-07-25T14:51:08.174Z,7.60
2018-07-25T14:53:36.759Z,8.20
2018-07-25T14:56:05.739Z,7.83
2018-07-25T14:58:34.416Z,9.97
2018-07-25T15:01:03.010Z,8.43
2018-07-25T15:03:31.682Z,8.50
2018-07-25T15:06:00.309Z,7.20
2018-07-25T15:08:28.982Z,8.30
2018-07-25T15:10:58.374Z,7.80
2018-07-25T15:13:27.028Z,8.00
2018-07-25T15:15:55.732Z,7.67
2018-07-25T15:18:24.376Z,9.73
2018-07-25T15:20:53.066Z,7.67
2018-07-25T15:23:32.936Z,6.73
2018-07-25T15:26:01.609Z,8.03
2018-07-25T15:28:30.234Z,7.00
2018-07-25T15:30:58.916Z,7.20
2018-07-25T15:33:27.833Z,9.03
2018-07-25T15:35:56.549Z,7.00
2018-07-25T15:38:25.199Z,8.03
2018-07-25T15:40:53.868Z,15.07
2018-07-25T15:43:23.245Z,7.93
2018-07-25T15:45:52.887Z,7.13
2018-07-25T15:48:22.891Z,8.73
2018-07-25T15:50:51.774Z,13.80
2018-07-25T15:53:21.419Z,13.80
2018-07-25T15:55:51.498Z,8.80
2018-07-25T15:58:21.274Z,7.90
2018-07-25T16:00:50.361Z,7.20
2018-07-25T16:03:19.024Z,6.90
2018-07-25T16:05:47.706Z,7.87
2018-07-25T16:08:16.399Z,9.10
2018-07-25T16:10:45.261Z,6.67
2018-07-25T16:13:15.313Z,7.20
2018-07-25T16:15:45.188Z,6.83
2018-07-25T16:18:13.991Z,7.40
2018-07-25T16:20:42.774Z,15.20
2018-07-25T16:23:11.590Z,12.17
2018-07-25T16:25:40.478Z,8.27
2018-07-25T16:28:11.366Z,7.70
2018-07-25T16:30:40.114Z,8.13
2018-07-25T16:33:09.185Z,8.43
2018-07-25T16:35:38.813Z,11.03
2018-07-25T16:38:08.389Z,8.97
2018-07-25T16:40:38.467Z,7.97
2018-07-25T16:43:07.980Z,7.50
2018-07-25T16:45:37.253Z,7.17
2018-07-25T16:48:06.203Z,8.20
2018-07-25T16:50:35.062Z,8.50
2018-07-25T16:53:04.208Z,7.53
2018-07-25T16:55:34.923Z,8.20
2018-07-25T16:58:03.601Z,7.80
2018-07-25T17:00:33.302Z,14.63
2018-07-25T17:03:06.206Z,10.40
2018-07-25T17:05:35.553Z,8.37
2018-07-25T17:08:05.830Z,8.50
2018-07-25T17:10:35.458Z,13.70
2018-07-25T17:13:04.845Z,7.57
2018-07-25T17:15:34.451Z,12.83
2018-07-25T17:18:04.379Z,10.60
2018-07-25T17:20:33.415Z,8.30
2018-07-25T17:23:02.098Z,7.87
2018-07-25T17:25:30.827Z,8.73
2018-07-25T17:27:59.614Z,8.80
2018-07-25T17:30:28.300Z,8.57
2018-07-25T17:32:56.996Z,11.40
2018-07-25T17:35:25.731Z,12.33
2018-07-25T17:37:54.555Z,7.23
2018-07-25T17:40:23.245Z,7.27
2018-07-25T17:42:51.955Z,6.70
2018-07-25T17:45:21.146Z,9.30
2018-07-25T17:47:50.763Z,12.07
2018-07-25T17:50:19.549Z,7.90
2018-07-25T17:52:48.451Z,11.03
2018-07-25T17:55:18.246Z,6.33
2018-07-25T17:57:47.019Z,21.50
2018-07-25T18:00:16.102Z,11.37
2018-07-25T18:02:45.657Z,11.20
2018-07-25T18:05:15.365Z,10.00
2018-07-25T18:07:44.256Z,7.97
2018-07-25T18:10:13.624Z,10.10
2018-07-25T18:12:42.713Z,6.93
2018-07-25T18:15:11.593Z,6.40
2018-07-25T18:17:40.384Z,4.80
2018-07-25T18:20:09.272Z,4.10
2018-07-25T18:22:38.378Z,4.00
2018-07-25T18:25:08.232Z,7.97
2018-07-25T18:27:37.228Z,7.37
2018-07-25T18:30:06.993Z,5.63
2018-07-25T18:32:36.615Z,5.97
2018-07-25T18:35:06.373Z,5.40
2018-07-25T18:37:35.839Z,6.80
2018-07-25T18:40:05.580Z,7.00
2018-07-25T18:42:35.936Z,6.50
2018-07-25T18:45:08.274Z,6.90
2018-07-25T18:47:38.296Z,8.00
2018-07-25T18:50:08.951Z,5.80
2018-07-25T18:52:38.538Z,6.27
2018-07-25T18:55:08.553Z,4.97
2018-07-25T18:57:38.132Z,5.00
2018-07-25T19:00:07.507Z,5.90
2018-07-25T19:02:37.469Z,8.47
2018-07-25T19:05:06.231Z,7.13
2018-07-25T19:07:36.341Z,5.40
2018-07-25T19:10:07.169Z,5.30
2018-07-25T19:12:35.994Z,10.20
2018-07-25T19:15:11.140Z,8.87
2018-07-25T19:17:41.117Z,7.50
2018-07-25T19:20:12.250Z,9.10
2018-07-25T19:22:42.235Z,6.57
2018-07-25T19:25:11.720Z,8.53
2018-07-25T19:27:41.226Z,9.63
2018-07-25T19:30:11.639Z,6.27
2018-07-25T19:32:40.976Z,6.87
2018-07-25T19:35:10.646Z,13.87
2018-07-25T19:37:39.817Z,18.93
2018-07-25T19:40:09.611Z,14.03
2018-07-25T19:42:39.093Z,10.10
2018-07-25T19:45:08.619Z,7.70
2018-07-25T19:47:38.060Z,9.10
2018-07-25T19:50:08.629Z,10.50
2018-07-25T19:52:37.650Z,11.77
2018-07-25T19:55:07.321Z,11.90
2018-07-25T19:57:36.517Z,10.97
2018-07-25T20:00:06.284Z,9.30
2018-07-25T20:02:35.917Z,12.00
2018-07-25T20:05:04.965Z,11.90
2018-07-25T20:07:34.345Z,9.40
2018-07-25T20:10:03.340Z,11.53
2018-07-25T20:12:32.108Z,11.27
2018-07-25T20:15:06.335Z,7.27
2018-07-25T20:17:35.412Z,13.30
2018-07-25T20:20:05.472Z,10.00
2018-07-25T20:24:34.614Z,17.70
2018-07-25T20:27:03.395Z,12.53
2018-07-25T20:29:32.191Z,15.80
2018-07-25T20:32:01.154Z,11.30
2018-07-25T20:34:30.279Z,11.47
2018-07-25T20:36:59.759Z,8.67
2018-07-25T20:39:29.208Z,11.87
2018-07-25T20:41:58.702Z,17.70
2018-07-25T20:44:27.345Z,18.10
2018-07-25T20:46:56.019Z,17.30
2018-07-25T20:49:25.505Z,14.43
2018-07-25T20:51:55.159Z,16.20
2018-07-25T20:54:24.255Z,10.37
2018-07-25T20:56:53.237Z,12.17
2018-07-25T20:59:22.434Z,15.73
2018-07-25T21:01:51.764Z,13.23
2018-07-25T21:04:20.881Z,10.70
2018-07-25T21:06:49.874Z,15.57
2018-07-25T21:09:18.690Z,13.10
2018-07-25T21:11:50.341Z,17.70
2018-07-25T21:14:19.702Z,13.97
2018-07-25T21:16:48.380Z,14.87
2018-07-25T21:19:17.733Z,11.67
2018-07-25T21:21:47.548Z,8.90
2018-07-25T21:24:16.183Z,12.13
2018-07-25T21:26:45.541Z,9.50
2018-07-25T21:29:15.682Z,13.00
2018-07-25T21:31:44.543Z,14.43
2018-07-25T21:34:13.217Z,14.67
2018-07-25T21:36:42.210Z,9.80
2018-07-25T21:39:12.828Z,15.70
2018-07-25T21:41:41.718Z,6.80
2018-07-25T21:44:10.406Z,10.93
2018-07-25T21:46:39.471Z,10.97
2018-07-25T21:49:08.323Z,10.40
2018-07-25T21:51:36.972Z,11.83
2018-07-25T21:54:06.159Z,10.10
2018-07-25T21:56:35.138Z,7.33
2018-07-25T21:59:03.848Z,9.10
2018-07-25T22:01:32.732Z,8.37
2018-07-25T22:04:01.404Z,8.70
2018-07-25T22:06:30.125Z,18.83
2018-07-25T22:08:58.904Z,11.23
2018-07-25T22:11:27.497Z,12.87
2018-07-25T22:13:57.080Z,10.50
2018-07-25T22:16:27.584Z,11.47
2018-07-25T22:18:56.305Z,9.63
2018-07-25T22:21:24.919Z,10.53
2018-07-25T22:23:53.683Z,12.20
2018-07-25T22:26:22.354Z,7.90
2018-07-25T22:28:51.119Z,10.93
2018-07-25T22:31:19.784Z,7.47
2018-07-25T22:33:48.453Z,12.77
2018-07-25T22:36:17.875Z,13.53
2018-07-25T22:38:46.530Z,11.70
2018-07-25T22:41:15.196Z,21.03
2018-07-25T22:43:43.806Z,13.53
2018-07-25T22:46:12.498Z,14.07
2018-07-25T22:48:41.537Z,9.40
2018-07-25T22:51:10.371Z,10.17
2018-07-25T22:53:40.096Z,9.00
2018-07-25T22:56:08.757Z,9.80
2018-07-25T22:58:37.396Z,7.60
2018-07-25T23:01:06.165Z,8.10
2018-07-25T23:03:34.871Z,9.00
2018-07-25T23:06:03.496Z,15.00
2018-07-25T23:08:32.285Z,8.47
2018-07-25T23:11:04.569Z,12.87
2018-07-25T23:13:33.273Z,13.27
2018-07-25T23:16:01.908Z,12.20
2018-07-25T23:18:30.537Z,8.43
2018-07-25T23:20:59.311Z,10.87
2018-07-25T23:23:27.912Z,7.40
2018-07-25T23:25:57.326Z,11.90
2018-07-25T23:28:26.279Z,9.03
2018-07-25T23:30:55.577Z,11.13
2018-07-25T23:33:24.217Z,11.77
2018-07-25T23:35:52.906Z,13.27
2018-07-25T23:38:22.293Z,7.93
2018-07-25T23:40:50.898Z,10.80
2018-07-25T23:43:19.542Z,12.00
2018-07-25T23:45:48.911Z,7.50
2018-07-25T23:48:17.657Z,7.97
2018-07-25T23:50:46.658Z,8.20
2018-07-25T23:53:16.147Z,10.00
2018-07-25T23:55:44.843Z,10.20
2018-07-25T23:58:13.443Z,8.27
